Terminal Aerodrome Forecast
Issued by NWS Houston/Galveston, TX

Home | Current Version | Previous Version | Text Only | Print | Product List | Glossary On
Versions: 1 2 3 4 5 6 7 8 9 10 11 12 13 14 15 16 17 18 19 20
000
FTUS44 KHGX 281122
TAFGLS
TAF
KGLS 281122Z 2812/2912 18010KT P6SM VCSH SCT020 BKN035
     FM281600 18010KT P6SM VCTS BKN035CB
     FM282000 17010KT P6SM BKN250
     FM290200 17008KT P6SM SCT250=

USA.gov is the U.S. government's official web portal to all federal, state and local government web resources and services.